Portales de las Piedras, Puerto Rico
Current Conditions -  °F | °C
As of 1:53 AM on Sunday 23 Nov 2014 (Local Time) from TJNR Reporting Station
Clear Clear  
Wind Chill: 80°   Ceiling: Unl
Heat Index: 84°   Visibility: 10mi
Dew Point: 72°   Wind: 12mph
Humidity: 76%   Direction: 80°E
Pressure: 30.02"   Gusts: NA
Location:  18.1853°N, 65.8667°W
Report Text: TJNR 230553Z AUTO 08010KT 10SM CLR 27/22 A3002 RMK AO2 SLP164 60000 T02670222 10272 20256 58011 $
Loading
Personal Weather Stations






























Interactive Weather Map New forecast layout! Learn more

10-Day Weather Forecast

Advertisements
Track Severe Weather on mobile